createdAt,value
2023-02-15T00:00:16.620Z,49.67
2023-02-15T00:03:05.193Z,53.33
2023-02-15T00:05:33.380Z,48.50
2023-02-15T00:08:01.919Z,50.67
2023-02-15T00:10:30.123Z,52.50
2023-02-15T00:12:58.613Z,48.75
2023-02-15T00:15:27.177Z,53.00
2023-02-15T00:17:55.891Z,55.00
2023-02-15T00:20:24.089Z,53.25
2023-02-15T00:22:52.658Z,54.50
2023-02-15T00:25:20.897Z,53.75
2023-02-15T00:27:49.316Z,50.33
2023-02-15T00:30:17.843Z,53.50
2023-02-15T00:32:49.189Z,49.50
2023-02-15T00:35:17.549Z,52.50
2023-02-15T00:37:46.011Z,50.75
2023-02-15T00:40:14.333Z,53.75
2023-02-15T00:42:42.896Z,54.00
2023-02-15T00:45:11.177Z,49.50
2023-02-15T00:47:39.684Z,54.00
2023-02-15T00:50:08.251Z,48.50
2023-02-15T00:52:36.944Z,50.75
2023-02-15T00:55:05.392Z,50.25
2023-02-15T00:57:33.906Z,50.25
2023-02-15T01:00:02.221Z,52.50
2023-02-15T01:02:30.768Z,51.00
2023-02-15T01:04:59.048Z,52.50
2023-02-15T01:07:27.874Z,50.75
2023-02-15T01:09:56.005Z,50.50
2023-02-15T01:12:24.592Z,48.00
2023-02-15T01:14:52.862Z,51.75
2023-02-15T01:17:21.713Z,52.00
2023-02-15T01:19:49.910Z,49.50
2023-02-15T01:22:19.944Z,46.50
2023-02-15T01:24:50.365Z,50.50
2023-02-15T01:27:19.370Z,52.50
2023-02-15T01:29:48.783Z,49.33
2023-02-15T01:32:17.502Z,49.00
2023-02-15T01:34:45.730Z,53.75
2023-02-15T01:37:15.243Z,49.50
2023-02-15T01:39:43.875Z,49.33
2023-02-15T01:42:13.586Z,45.33
2023-02-15T01:44:54.367Z,47.50
2023-02-15T01:47:33.763Z,49.75
2023-02-15T01:50:10.311Z,52.33
2023-02-15T01:52:42.552Z,52.00
2023-02-15T01:55:13.896Z,48.00
2023-02-15T01:57:43.807Z,48.50
2023-02-15T02:00:12.637Z,48.00
2023-02-15T02:02:43.869Z,45.67
2023-02-15T02:05:12.264Z,53.75
2023-02-15T02:07:43.874Z,50.00
2023-02-15T02:10:15.768Z,46.67
2023-02-15T02:12:49.479Z,48.00
2023-02-15T02:15:17.917Z,48.25
2023-02-15T02:17:58.999Z,46.50
2023-02-15T02:20:32.128Z,46.00
2023-02-15T02:23:42.926Z,46.50
2023-02-15T02:27:05.560Z,44.25
2023-02-15T02:29:52.805Z,45.25
2023-02-15T02:32:23.589Z,46.75
2023-02-15T02:35:00.899Z,43.00
2023-02-15T02:37:35.180Z,45.00
2023-02-15T02:40:09.321Z,43.75
2023-02-15T02:42:46.031Z,43.50
2023-02-15T02:45:33.906Z,44.25
2023-02-15T02:48:15.600Z,43.25
2023-02-15T02:50:44.162Z,42.75
2023-02-15T02:53:12.550Z,43.25
2023-02-15T02:55:45.885Z,42.00
2023-02-15T02:58:19.010Z,43.00
2023-02-15T03:00:57.740Z,49.00
2023-02-15T03:03:38.218Z,44.25
2023-02-15T03:06:42.854Z,40.00
2023-02-15T03:09:15.888Z,45.25
2023-02-15T03:11:45.859Z,39.50
2023-02-15T03:14:18.261Z,42.50
2023-02-15T03:16:49.758Z,42.50
2023-02-15T03:19:24.014Z,45.00
2023-02-15T03:22:10.532Z,43.00
2023-02-15T03:24:50.702Z,41.25
2023-02-15T03:27:24.641Z,41.25
2023-02-15T03:29:55.514Z,41.75
2023-02-15T03:32:25.112Z,45.75
2023-02-15T03:34:53.376Z,42.67
2023-02-15T03:37:29.914Z,42.00
2023-02-15T03:40:22.304Z,42.67
2023-02-15T03:42:55.878Z,39.75
2023-02-15T03:45:28.312Z,40.25
2023-02-15T03:47:58.442Z,39.50
2023-02-15T03:50:51.752Z,43.00
2023-02-15T03:53:23.160Z,44.00
2023-02-15T03:55:55.270Z,40.75
2023-02-15T03:58:42.206Z,41.25
2023-02-15T04:01:45.172Z,41.00
2023-02-15T04:04:19.771Z,40.25
2023-02-15T04:06:48.168Z,40.00
2023-02-15T04:09:35.373Z,42.25
2023-02-15T04:12:03.737Z,40.50
2023-02-15T04:14:51.102Z,39.00
2023-02-15T04:17:19.348Z,39.75
2023-02-15T04:20:06.639Z,42.00
2023-02-15T04:22:53.591Z,40.00
2023-02-15T04:25:22.697Z,41.50
2023-02-15T04:27:53.116Z,40.00
2023-02-15T04:30:24.890Z,40.00
2023-02-15T04:32:53.176Z,42.50
2023-02-15T04:35:21.714Z,39.50
2023-02-15T04:37:49.985Z,39.00
2023-02-15T04:40:19.701Z,41.00
2023-02-15T04:42:50.239Z,40.75
2023-02-15T04:45:19.220Z,42.67
2023-02-15T04:47:47.434Z,41.00
2023-02-15T04:50:15.872Z,42.25
2023-02-15T04:52:44.045Z,41.33
2023-02-15T04:55:12.543Z,41.75
2023-02-15T04:57:40.780Z,42.50
2023-02-15T05:00:10.288Z,39.25
2023-02-15T05:02:38.935Z,41.00
2023-02-15T05:05:08.444Z,40.33
2023-02-15T05:07:36.583Z,39.50
2023-02-15T05:10:05.496Z,38.00
2023-02-15T05:12:34.210Z,42.25
2023-02-15T05:15:02.699Z,36.00
2023-02-15T05:17:31.028Z,38.00
2023-02-15T05:19:59.466Z,39.25
2023-02-15T05:22:27.605Z,37.33
2023-02-15T05:25:14.343Z,34.50
2023-02-15T05:28:01.058Z,37.50
2023-02-15T05:30:29.707Z,36.33
2023-02-15T05:32:57.997Z,37.00
2023-02-15T05:35:26.456Z,35.75
2023-02-15T05:37:54.580Z,35.00
2023-02-15T05:40:23.142Z,34.33
2023-02-15T05:42:51.404Z,35.67
2023-02-15T05:45:19.942Z,35.50
2023-02-15T05:47:48.262Z,35.00
2023-02-15T05:50:17.413Z,35.00
2023-02-15T05:52:45.822Z,36.25
2023-02-15T05:55:14.312Z,34.75
2023-02-15T05:57:42.513Z,33.75
2023-02-15T06:00:11.652Z,35.25
2023-02-15T06:02:40.472Z,34.25
2023-02-15T06:05:09.002Z,35.50
2023-02-15T06:07:37.169Z,32.75
2023-02-15T06:10:06.423Z,35.00
2023-02-15T06:12:34.587Z,37.25
2023-02-15T06:15:03.870Z,36.67
2023-02-15T06:17:32.033Z,35.25
2023-02-15T06:20:00.584Z,32.75
2023-02-15T06:22:28.722Z,35.25
2023-02-15T06:24:57.243Z,36.00
2023-02-15T06:27:25.396Z,37.00
2023-02-15T06:29:53.982Z,34.50
2023-02-15T06:32:22.076Z,33.75
2023-02-15T06:34:50.585Z,35.25
2023-02-15T06:37:18.769Z,34.75
2023-02-15T06:39:47.336Z,34.75
2023-02-15T06:42:15.552Z,34.75
2023-02-15T06:44:44.182Z,33.00
2023-02-15T06:47:12.698Z,39.00
2023-02-15T06:49:41.273Z,34.50
2023-02-15T06:52:09.632Z,33.25
2023-02-15T06:54:38.122Z,34.75
2023-02-15T06:57:06.245Z,33.25
2023-02-15T06:59:35.013Z,32.00
2023-02-15T07:02:03.267Z,33.50
2023-02-15T07:04:31.782Z,35.33
2023-02-15T07:07:00.052Z,36.33
2023-02-15T07:09:28.585Z,34.50
2023-02-15T07:12:15.607Z,33.33
2023-02-15T07:14:44.025Z,35.25
2023-02-15T07:17:32.936Z,34.50
2023-02-15T07:20:00.932Z,35.33
2023-02-15T07:22:29.331Z,33.75
2023-02-15T07:24:58.305Z,36.25
2023-02-15T07:27:26.466Z,37.25
2023-02-15T07:29:55.071Z,35.33
2023-02-15T07:32:23.288Z,38.50
2023-02-15T07:34:52.036Z,36.50
2023-02-15T07:37:20.254Z,35.75
2023-02-15T07:39:48.672Z,37.00
2023-02-15T07:42:17.064Z,37.25
2023-02-15T07:44:45.509Z,38.00
2023-02-15T07:47:13.716Z,37.00
2023-02-15T07:49:42.113Z,36.75
2023-02-15T07:52:10.402Z,38.75
2023-02-15T07:54:38.876Z,38.75
2023-02-15T07:57:07.080Z,38.25
2023-02-15T07:59:35.580Z,34.33
2023-02-15T08:02:03.696Z,38.00
2023-02-15T08:04:32.305Z,37.67
2023-02-15T08:07:00.431Z,38.67
2023-02-15T08:09:28.929Z,40.75
2023-02-15T08:11:57.128Z,40.67
2023-02-15T08:14:25.738Z,42.75
2023-02-15T08:16:58.718Z,41.50
2023-02-15T08:19:31.654Z,42.50
2023-02-15T08:22:05.262Z,46.00
2023-02-15T08:24:40.816Z,45.00
2023-02-15T08:27:11.510Z,42.75
2023-02-15T08:29:40.600Z,46.75
2023-02-15T08:32:11.476Z,44.00
2023-02-15T08:34:42.063Z,43.50
2023-02-15T08:37:10.633Z,43.25
2023-02-15T08:39:39.177Z,44.50
2023-02-15T08:42:07.384Z,44.00
2023-02-15T08:44:35.864Z,43.75
2023-02-15T08:47:05.105Z,42.50
2023-02-15T08:49:33.804Z,47.75
2023-02-15T08:52:02.125Z,39.50
2023-02-15T08:54:30.781Z,42.33
2023-02-15T08:56:58.964Z,42.50
2023-02-15T08:59:28.133Z,45.75
2023-02-15T09:01:56.679Z,43.25
2023-02-15T09:04:25.524Z,43.75
2023-02-15T09:06:53.942Z,42.75
2023-02-15T09:09:23.058Z,44.00
2023-02-15T09:11:57.696Z,41.75
2023-02-15T09:14:28.404Z,44.00
2023-02-15T09:16:56.940Z,44.33
2023-02-15T09:19:26.069Z,44.25
2023-02-15T09:21:54.595Z,41.00
2023-02-15T09:24:23.218Z,44.00
2023-02-15T09:26:51.613Z,41.00
2023-02-15T09:29:20.991Z,42.00
2023-02-15T09:31:51.165Z,43.25
2023-02-15T09:34:22.279Z,40.75
2023-02-15T09:36:51.008Z,44.25
2023-02-15T09:39:26.170Z,40.33
2023-02-15T09:41:57.308Z,42.50
2023-02-15T09:44:43.897Z,43.00
2023-02-15T09:47:39.899Z,41.00
2023-02-15T09:50:27.809Z,41.67
2023-02-15T09:53:09.658Z,41.50
2023-02-15T09:56:11.330Z,41.25
2023-02-15T09:59:06.751Z,43.25
2023-02-15T10:01:51.262Z,45.00
2023-02-15T10:04:35.706Z,41.75
2023-02-15T10:07:10.459Z,42.50
2023-02-15T10:09:48.273Z,42.25
2023-02-15T10:12:25.351Z,42.67
2023-02-15T10:15:18.686Z,42.33
2023-02-15T10:18:11.365Z,40.33
2023-02-15T10:20:40.632Z,42.75
2023-02-15T10:23:19.344Z,43.50
2023-02-15T10:26:23.918Z,39.50
2023-02-15T10:29:18.076Z,42.50
2023-02-15T10:32:10.559Z,40.25
2023-02-15T10:34:40.941Z,39.25
2023-02-15T10:37:14.731Z,41.00
2023-02-15T10:39:43.651Z,39.75
2023-02-15T10:42:29.885Z,40.33
2023-02-15T10:45:29.140Z,39.75
2023-02-15T10:48:06.130Z,37.25
2023-02-15T10:50:49.900Z,37.50
2023-02-15T10:53:42.850Z,38.50
2023-02-15T10:56:29.970Z,38.25
2023-02-15T10:59:46.713Z,39.33
2023-02-15T11:02:23.942Z,36.00
2023-02-15T11:05:21.652Z,38.50
2023-02-15T11:07:54.062Z,36.50
2023-02-15T11:10:30.645Z,36.33
2023-02-15T11:13:05.311Z,37.00
2023-02-15T11:15:41.450Z,36.25
2023-02-15T11:18:30.201Z,38.50
2023-02-15T11:21:23.272Z,38.75
2023-02-15T11:23:53.265Z,35.00
2023-02-15T11:26:53.630Z,37.00
2023-02-15T11:29:38.160Z,36.00
2023-02-15T11:32:25.733Z,35.67
2023-02-15T11:35:11.618Z,36.33
2023-02-15T11:37:56.510Z,37.67
2023-02-15T11:40:47.399Z,35.75
2023-02-15T11:43:49.535Z,35.00
2023-02-15T11:46:19.960Z,38.50
2023-02-15T11:48:48.499Z,37.25
2023-02-15T11:51:20.520Z,34.25
2023-02-15T11:53:50.701Z,34.50
2023-02-15T11:56:23.786Z,37.50
2023-02-15T11:59:05.917Z,36.75
2023-02-15T12:01:47.859Z,38.00
2023-02-15T12:04:16.214Z,50.00
2023-02-15T12:07:08.958Z,49.00
2023-02-15T12:10:15.002Z,50.50
2023-02-15T12:12:43.543Z,50.00
2023-02-15T12:15:13.182Z,49.67
2023-02-15T12:17:49.568Z,48.75
2023-02-15T12:20:20.707Z,47.75
2023-02-15T12:23:05.396Z,47.00
2023-02-15T12:25:46.389Z,46.00
2023-02-15T12:28:22.093Z,47.50
2023-02-15T12:30:51.830Z,48.75
2023-02-15T12:33:44.517Z,47.67
2023-02-15T12:36:12.631Z,49.25
2023-02-15T12:38:41.468Z,47.25
2023-02-15T12:41:32.280Z,44.25
2023-02-15T12:44:16.185Z,44.00
2023-02-15T12:46:59.532Z,40.25
2023-02-15T12:49:33.267Z,42.25
2023-02-15T12:52:23.208Z,40.50
2023-02-15T12:54:52.388Z,38.00
2023-02-15T12:57:27.669Z,36.50
2023-02-15T13:00:07.030Z,40.25
2023-02-15T13:02:55.209Z,36.50
2023-02-15T13:05:30.435Z,38.50
2023-02-15T13:08:04.204Z,37.25
2023-02-15T13:10:36.975Z,39.67
2023-02-15T13:13:12.051Z,36.00
2023-02-15T13:15:42.925Z,35.33
2023-02-15T13:18:39.189Z,37.75
2023-02-15T13:21:15.030Z,35.50
2023-02-15T13:23:50.967Z,36.25
2023-02-15T13:26:24.161Z,36.75
2023-02-15T13:28:57.200Z,35.00
2023-02-15T13:31:29.617Z,32.50
2023-02-15T13:34:21.259Z,33.00
2023-02-15T13:37:07.858Z,35.00
2023-02-15T13:40:03.439Z,33.25
2023-02-15T13:42:41.499Z,31.25
2023-02-15T13:45:35.084Z,31.75
2023-02-15T13:48:22.224Z,32.75
2023-02-15T13:51:11.816Z,33.25
2023-02-15T13:54:04.873Z,31.50
2023-02-15T13:56:51.915Z,32.33
2023-02-15T13:59:57.395Z,33.75
2023-02-15T14:02:32.244Z,29.50
2023-02-15T14:05:31.167Z,28.33
2023-02-15T14:08:13.616Z,29.50
2023-02-15T14:10:58.302Z,29.25
2023-02-15T14:14:23.391Z,31.00
2023-02-15T14:17:22.847Z,29.00
2023-02-15T14:19:56.169Z,30.00
2023-02-15T14:22:36.011Z,30.25
2023-02-15T14:25:31.662Z,32.00
2023-02-15T14:28:18.692Z,29.00
2023-02-15T14:30:50.832Z,29.67
2023-02-15T14:33:39.654Z,32.75
2023-02-15T14:36:09.815Z,32.50
2023-02-15T14:38:38.501Z,31.00
2023-02-15T14:41:27.231Z,31.50
2023-02-15T14:44:11.008Z,30.50
2023-02-15T14:47:02.564Z,28.75
2023-02-15T14:49:41.937Z,29.50
2023-02-15T14:52:12.742Z,29.00
2023-02-15T14:54:41.302Z,28.00
2023-02-15T14:57:09.532Z,28.00
2023-02-15T14:59:58.511Z,27.25
2023-02-15T15:02:27.651Z,26.00
2023-02-15T15:05:04.929Z,29.50
2023-02-15T15:07:52.845Z,28.50
2023-02-15T15:10:21.865Z,28.33
2023-02-15T15:12:54.331Z,28.00
2023-02-15T15:15:29.027Z,27.00
2023-02-15T15:18:01.649Z,29.00
2023-02-15T15:20:53.533Z,29.25
2023-02-15T15:23:22.170Z,27.33
2023-02-15T15:25:53.563Z,28.75
2023-02-15T15:28:36.764Z,30.00
2023-02-15T15:31:11.400Z,29.00
2023-02-15T15:34:01.076Z,26.25
2023-02-15T15:36:47.887Z,28.00
2023-02-15T15:39:27.876Z,30.25
2023-02-15T15:42:27.201Z,33.67
2023-02-15T15:45:26.334Z,33.50
2023-02-15T15:48:06.974Z,34.25
2023-02-15T15:50:36.053Z,34.33
2023-02-15T15:53:07.487Z,34.00
2023-02-15T15:55:35.917Z,36.25
2023-02-15T15:58:07.522Z,37.50
2023-02-15T16:00:56.607Z,35.00
2023-02-15T16:03:27.820Z,36.00
2023-02-15T16:06:01.226Z,36.75
2023-02-15T16:08:38.127Z,41.50
2023-02-15T16:11:17.687Z,37.33
2023-02-15T16:13:46.478Z,40.75
2023-02-15T16:16:22.404Z,38.75
2023-02-15T16:18:51.357Z,41.00
2023-02-15T16:21:27.769Z,38.75
2023-02-15T16:24:02.753Z,41.00
2023-02-15T16:27:02.310Z,43.00
2023-02-15T16:29:34.539Z,41.33
2023-02-15T16:32:25.808Z,42.25
2023-02-15T16:34:59.600Z,45.25
2023-02-15T16:37:35.838Z,41.33
2023-02-15T16:40:04.826Z,41.75
2023-02-15T16:42:33.168Z,45.25
2023-02-15T16:45:05.610Z,38.00
2023-02-15T16:47:38.415Z,44.75
2023-02-15T16:50:07.765Z,44.00
2023-02-15T16:52:36.064Z,41.50
2023-02-15T16:55:06.282Z,42.33
2023-02-15T16:57:37.537Z,40.50
2023-02-15T17:00:09.366Z,44.25
2023-02-15T17:02:54.441Z,42.00
2023-02-15T17:05:24.837Z,43.75
2023-02-15T17:08:24.666Z,40.50
2023-02-15T17:11:21.108Z,42.25
2023-02-15T17:14:10.860Z,39.25
2023-02-15T17:16:51.848Z,40.00
2023-02-15T17:19:32.281Z,41.75
2023-02-15T17:22:06.765Z,41.50
2023-02-15T17:24:45.376Z,44.75
2023-02-15T17:27:19.549Z,35.75
2023-02-15T17:30:16.708Z,42.67
2023-02-15T17:33:02.025Z,43.50
2023-02-15T17:35:32.917Z,40.75
2023-02-15T17:38:18.884Z,39.67
2023-02-15T17:40:47.147Z,37.75
2023-02-15T17:43:15.656Z,39.33
2023-02-15T17:45:48.604Z,40.50
2023-02-15T17:48:32.595Z,40.50
2023-02-15T17:51:06.656Z,39.75
2023-02-15T17:53:35.349Z,38.50
2023-02-15T17:56:10.852Z,37.50
2023-02-15T17:58:39.860Z,40.50
2023-02-15T18:01:34.291Z,40.00
2023-02-15T18:04:21.241Z,39.00
2023-02-15T18:07:08.142Z,36.50
2023-02-15T18:09:55.422Z,38.25
2023-02-15T18:12:33.432Z,35.75
2023-02-15T18:15:02.947Z,38.75
2023-02-15T18:17:36.990Z,38.50
2023-02-15T18:20:18.218Z,40.00
2023-02-15T18:22:46.792Z,39.25
2023-02-15T18:25:17.552Z,41.00
2023-02-15T18:27:46.228Z,40.25
2023-02-15T18:30:21.754Z,44.25
2023-02-15T18:32:52.216Z,45.67
2023-02-15T18:35:22.586Z,44.75
2023-02-15T18:37:51.440Z,48.00
2023-02-15T18:40:22.110Z,44.00
2023-02-15T18:42:50.508Z,46.00
2023-02-15T18:45:21.758Z,47.25
2023-02-15T18:47:49.944Z,44.00
2023-02-15T18:50:20.505Z,45.50
2023-02-15T18:52:51.694Z,46.25
2023-02-15T18:55:22.787Z,45.25
2023-02-15T18:57:52.397Z,46.33
2023-02-15T19:00:30.600Z,43.25
2023-02-15T19:02:59.814Z,43.00
2023-02-15T19:05:30.360Z,43.75
2023-02-15T19:08:00.458Z,44.50
2023-02-15T19:10:30.959Z,48.00
2023-02-15T19:12:59.562Z,45.50
2023-02-15T19:15:32.778Z,47.50
2023-02-15T19:18:01.135Z,44.75
2023-02-15T19:20:39.626Z,49.33
2023-02-15T19:23:14.971Z,46.75
2023-02-15T19:25:43.381Z,51.25
2023-02-15T19:28:31.032Z,51.50
2023-02-15T19:30:59.822Z,46.50
2023-02-15T19:33:28.477Z,51.75
2023-02-15T19:36:00.740Z,47.75
2023-02-15T19:38:32.632Z,46.00
2023-02-15T19:41:05.328Z,48.00
2023-02-15T19:43:34.649Z,50.25
2023-02-15T19:46:04.503Z,48.00
2023-02-15T19:48:33.466Z,49.33
2023-02-15T19:51:04.720Z,49.00
2023-02-15T19:53:34.047Z,50.50
2023-02-15T19:56:04.050Z,49.50
2023-02-15T19:58:34.174Z,47.75
2023-02-15T20:01:04.221Z,51.33
2023-02-15T20:03:32.847Z,45.75
2023-02-15T20:06:02.989Z,52.33
2023-02-15T20:08:32.860Z,49.00
2023-02-15T20:11:01.717Z,46.67
2023-02-15T20:13:30.494Z,47.75
2023-02-15T20:16:02.406Z,46.67
2023-02-15T20:18:31.826Z,47.75
2023-02-15T20:21:03.739Z,50.50
2023-02-15T20:23:38.565Z,48.67
2023-02-15T20:26:19.511Z,48.50
2023-02-15T20:28:50.066Z,47.25
2023-02-15T20:31:21.769Z,48.67
2023-02-15T20:33:51.456Z,48.00
2023-02-15T20:36:23.578Z,50.00
2023-02-15T20:38:53.546Z,47.00
2023-02-15T20:41:39.121Z,47.25
2023-02-15T20:44:20.212Z,49.75
2023-02-15T20:46:55.014Z,48.75
2023-02-15T20:49:24.786Z,47.50
2023-02-15T20:51:55.002Z,51.67
2023-02-15T20:54:25.882Z,45.75
2023-02-15T20:56:57.500Z,49.75
2023-02-15T20:59:28.058Z,48.50
2023-02-15T21:02:19.359Z,47.75
2023-02-15T21:04:47.501Z,49.25
2023-02-15T21:07:20.570Z,52.75
2023-02-15T21:09:49.206Z,51.00
2023-02-15T21:12:19.534Z,49.75
2023-02-15T21:14:47.914Z,50.25
2023-02-15T21:17:17.450Z,46.75
2023-02-15T21:19:46.359Z,49.75
2023-02-15T21:22:16.042Z,53.33
2023-02-15T21:24:50.709Z,49.33
2023-02-15T21:27:19.128Z,52.50
2023-02-15T21:29:47.085Z,50.50
2023-02-15T21:32:15.686Z,49.50
2023-02-15T21:34:43.719Z,50.25
2023-02-15T21:37:30.977Z,52.25
2023-02-15T21:39:59.167Z,49.50
2023-02-15T21:42:47.008Z,48.00
2023-02-15T21:45:35.633Z,49.00
2023-02-15T21:48:04.093Z,53.00
2023-02-15T21:50:50.953Z,52.25
2023-02-15T21:53:25.531Z,49.00
2023-02-15T21:55:58.419Z,50.50
2023-02-15T21:58:29.323Z,49.50
2023-02-15T22:00:58.849Z,53.00
2023-02-15T22:03:32.963Z,48.25
2023-02-15T22:06:01.236Z,51.25
2023-02-15T22:08:29.767Z,51.25
2023-02-15T22:10:57.974Z,52.50
2023-02-15T22:13:29.209Z,48.00
2023-02-15T22:15:58.441Z,49.75
2023-02-15T22:18:31.405Z,51.50
2023-02-15T22:21:01.993Z,51.00
2023-02-15T22:23:30.555Z,52.50
2023-02-15T22:26:04.436Z,52.50
2023-02-15T22:28:51.546Z,49.75
2023-02-15T22:31:21.566Z,50.50
2023-02-15T22:33:51.395Z,55.50
2023-02-15T22:36:25.143Z,54.25
2023-02-15T22:38:54.173Z,51.00
2023-02-15T22:41:29.029Z,52.75
2023-02-15T22:43:57.998Z,55.33
2023-02-15T22:46:26.419Z,53.50
2023-02-15T22:48:54.926Z,52.50
2023-02-15T22:51:24.324Z,55.00
2023-02-15T22:53:53.942Z,49.00
2023-02-15T22:56:27.150Z,55.33
2023-02-15T22:59:04.405Z,52.00
2023-02-15T23:01:35.135Z,50.00
2023-02-15T23:04:04.201Z,56.33
2023-02-15T23:06:34.651Z,53.50
2023-02-15T23:09:03.352Z,53.50
2023-02-15T23:11:31.523Z,53.75
2023-02-15T23:13:59.871Z,53.00
2023-02-15T23:16:28.358Z,54.50
2023-02-15T23:18:56.778Z,49.67
2023-02-15T23:21:34.397Z,51.25
2023-02-15T23:24:23.258Z,51.00
2023-02-15T23:26:51.385Z,53.50
2023-02-15T23:29:23.301Z,55.50
2023-02-15T23:31:54.804Z,54.00
2023-02-15T23:34:29.440Z,51.25
2023-02-15T23:36:57.870Z,49.33
2023-02-15T23:39:47.574Z,49.75
2023-02-15T23:42:21.900Z,53.50
2023-02-15T23:44:50.284Z,51.33
2023-02-15T23:47:44.258Z,52.25
2023-02-15T23:50:24.873Z,48.00
2023-02-15T23:52:54.560Z,47.75
2023-02-15T23:55:24.462Z,51.67
2023-02-15T23:57:54.005Z,46.75
